sensor_id;sensor_type;location;lat;lon;timestamp;temperature;humidity
71082;SHT31;58740;50.672;18.690;2022-12-29T00:00:08;4.15;70.39
71082;SHT31;58740;50.672;18.690;2022-12-29T00:02:58;4.14;70.43
71082;SHT31;58740;50.672;18.690;2022-12-29T00:05:26;4.15;70.40
71082;SHT31;58740;50.672;18.690;2022-12-29T00:07:54;4.16;70.46
71082;SHT31;58740;50.672;18.690;2022-12-29T00:10:21;4.19;70.17
71082;SHT31;58740;50.672;18.690;2022-12-29T00:12:49;4.20;70.26
71082;SHT31;58740;50.672;18.690;2022-12-29T00:15:35;4.19;70.21
71082;SHT31;58740;50.672;18.690;2022-12-29T00:18:07;4.18;70.59
71082;SHT31;58740;50.672;18.690;2022-12-29T00:20:36;4.16;70.60
71082;SHT31;58740;50.672;18.690;2022-12-29T00:23:23;4.15;70.60
71082;SHT31;58740;50.672;18.690;2022-12-29T00:26:24;4.12;70.43
71082;SHT31;58740;50.672;18.690;2022-12-29T00:29:10;4.11;70.54
71082;SHT31;58740;50.672;18.690;2022-12-29T00:32:10;4.13;70.56
71082;SHT31;58740;50.672;18.690;2022-12-29T00:34:56;4.16;70.29
71082;SHT31;58740;50.672;18.690;2022-12-29T00:37:40;4.18;70.41
71082;SHT31;58740;50.672;18.690;2022-12-29T00:40:33;4.18;70.40
71082;SHT31;58740;50.672;18.690;2022-12-29T00:43:20;4.18;70.46
71082;SHT31;58740;50.672;18.690;2022-12-29T00:46:06;4.18;70.43
71082;SHT31;58740;50.672;18.690;2022-12-29T00:48:34;4.17;70.57
71082;SHT31;58740;50.672;18.690;2022-12-29T00:51:20;4.17;70.47
71082;SHT31;58740;50.672;18.690;2022-12-29T00:53:48;4.15;70.33
71082;SHT31;58740;50.672;18.690;2022-12-29T00:56:16;4.15;70.63
71082;SHT31;58740;50.672;18.690;2022-12-29T00:58:44;4.16;70.85
71082;SHT31;58740;50.672;18.690;2022-12-29T01:01:12;4.17;70.76
71082;SHT31;58740;50.672;18.690;2022-12-29T01:03:40;4.18;70.48
71082;SHT31;58740;50.672;18.690;2022-12-29T01:06:08;4.21;70.55
71082;SHT31;58740;50.672;18.690;2022-12-29T01:08:38;4.21;70.30
71082;SHT31;58740;50.672;18.690;2022-12-29T01:11:08;4.21;70.28
71082;SHT31;58740;50.672;18.690;2022-12-29T01:13:38;4.21;69.89
71082;SHT31;58740;50.672;18.690;2022-12-29T01:16:08;4.22;70.12
71082;SHT31;58740;50.672;18.690;2022-12-29T01:18:36;4.22;70.24
71082;SHT31;58740;50.672;18.690;2022-12-29T01:21:04;4.22;70.30
71082;SHT31;58740;50.672;18.690;2022-12-29T01:23:33;4.23;69.96
71082;SHT31;58740;50.672;18.690;2022-12-29T01:26:08;4.26;70.44
71082;SHT31;58740;50.672;18.690;2022-12-29T01:28:38;4.28;70.26
71082;SHT31;58740;50.672;18.690;2022-12-29T01:31:08;4.31;69.94
71082;SHT31;58740;50.672;18.690;2022-12-29T01:33:37;4.33;70.14
71082;SHT31;58740;50.672;18.690;2022-12-29T01:36:10;4.33;70.34
71082;SHT31;58740;50.672;18.690;2022-12-29T01:38:41;4.33;70.20
71082;SHT31;58740;50.672;18.690;2022-12-29T01:41:11;4.33;70.27
71082;SHT31;58740;50.672;18.690;2022-12-29T01:43:46;4.32;70.37
71082;SHT31;58740;50.672;18.690;2022-12-29T01:46:31;4.32;70.26
71082;SHT31;58740;50.672;18.690;2022-12-29T01:49:12;4.30;70.46
71082;SHT31;58740;50.672;18.690;2022-12-29T01:51:58;4.31;70.36
71082;SHT31;58740;50.672;18.690;2022-12-29T01:54:37;4.33;70.20
71082;SHT31;58740;50.672;18.690;2022-12-29T01:57:16;4.36;70.29
71082;SHT31;58740;50.672;18.690;2022-12-29T01:59:53;4.38;70.07
71082;SHT31;58740;50.672;18.690;2022-12-29T02:02:32;4.40;69.82
71082;SHT31;58740;50.672;18.690;2022-12-29T02:05:07;4.41;69.97
71082;SHT31;58740;50.672;18.690;2022-12-29T02:07:41;4.41;70.10
71082;SHT31;58740;50.672;18.690;2022-12-29T02:10:10;4.40;70.00
71082;SHT31;58740;50.672;18.690;2022-12-29T02:12:38;4.39;69.96
71082;SHT31;58740;50.672;18.690;2022-12-29T02:15:06;4.37;70.00
71082;SHT31;58740;50.672;18.690;2022-12-29T02:21:09;4.35;69.66
71082;SHT31;58740;50.672;18.690;2022-12-29T02:24:45;4.38;69.32
71082;SHT31;58740;50.672;18.690;2022-12-29T02:36:14;4.40;69.71
71082;SHT31;58740;50.672;18.690;2022-12-29T02:38:58;4.39;69.51
71082;SHT31;58740;50.672;18.690;2022-12-29T02:41:41;4.38;69.67
71082;SHT31;58740;50.672;18.690;2022-12-29T02:44:39;4.36;69.74
71082;SHT31;58740;50.672;18.690;2022-12-29T02:53:25;4.39;69.44
71082;SHT31;58740;50.672;18.690;2022-12-29T02:56:14;4.41;69.75
71082;SHT31;58740;50.672;18.690;2022-12-29T02:58:42;4.42;69.62
71082;SHT31;58740;50.672;18.690;2022-12-29T03:04:25;4.41;69.67
71082;SHT31;58740;50.672;18.690;2022-12-29T03:07:12;4.40;69.79
71082;SHT31;58740;50.672;18.690;2022-12-29T03:13:18;4.39;70.17
71082;SHT31;58740;50.672;18.690;2022-12-29T03:16:29;4.38;70.04
71082;SHT31;58740;50.672;18.690;2022-12-29T03:19:28;4.40;69.79
71082;SHT31;58740;50.672;18.690;2022-12-29T03:22:06;4.43;69.91
71082;SHT31;58740;50.672;18.690;2022-12-29T03:25:02;4.45;69.84
71082;SHT31;58740;50.672;18.690;2022-12-29T03:27:41;4.46;69.89
71082;SHT31;58740;50.672;18.690;2022-12-29T03:30:41;4.45;69.70
71082;SHT31;58740;50.672;18.690;2022-12-29T03:33:12;4.46;69.86
71082;SHT31;58740;50.672;18.690;2022-12-29T03:35:46;4.44;69.98
71082;SHT31;58740;50.672;18.690;2022-12-29T03:41:25;4.42;70.02
71082;SHT31;58740;50.672;18.690;2022-12-29T03:43:58;4.42;69.91
71082;SHT31;58740;50.672;18.690;2022-12-29T03:46:26;4.43;69.94
71082;SHT31;58740;50.672;18.690;2022-12-29T03:48:54;4.44;70.12
71082;SHT31;58740;50.672;18.690;2022-12-29T03:51:22;4.46;70.01
71082;SHT31;58740;50.672;18.690;2022-12-29T03:53:50;4.47;69.93
71082;SHT31;58740;50.672;18.690;2022-12-29T03:56:17;4.50;69.81
71082;SHT31;58740;50.672;18.690;2022-12-29T03:58:45;4.49;69.64
71082;SHT31;58740;50.672;18.690;2022-12-29T04:01:13;4.49;69.53
71082;SHT31;58740;50.672;18.690;2022-12-29T04:03:41;4.47;69.50
71082;SHT31;58740;50.672;18.690;2022-12-29T04:06:09;4.43;69.38
71082;SHT31;58740;50.672;18.690;2022-12-29T04:08:36;4.40;69.40
71082;SHT31;58740;50.672;18.690;2022-12-29T04:11:04;4.38;69.83
71082;SHT31;58740;50.672;18.690;2022-12-29T04:13:33;4.33;70.09
71082;SHT31;58740;50.672;18.690;2022-12-29T04:16:01;4.30;70.03
71082;SHT31;58740;50.672;18.690;2022-12-29T04:18:29;4.28;70.28
71082;SHT31;58740;50.672;18.690;2022-12-29T04:20:57;4.29;70.40
71082;SHT31;58740;50.672;18.690;2022-12-29T04:23:28;4.27;69.81
71082;SHT31;58740;50.672;18.690;2022-12-29T04:26:00;4.27;69.90
71082;SHT31;58740;50.672;18.690;2022-12-29T04:28:28;4.25;70.06
71082;SHT31;58740;50.672;18.690;2022-12-29T04:30:57;4.24;70.34
71082;SHT31;58740;50.672;18.690;2022-12-29T04:33:26;4.22;70.46
71082;SHT31;58740;50.672;18.690;2022-12-29T04:35:55;4.18;70.35
71082;SHT31;58740;50.672;18.690;2022-12-29T04:38:23;4.16;70.40
71082;SHT31;58740;50.672;18.690;2022-12-29T04:40:51;4.11;70.34
71082;SHT31;58740;50.672;18.690;2022-12-29T04:43:19;4.09;70.45
71082;SHT31;58740;50.672;18.690;2022-12-29T04:45:48;4.06;70.58
71082;SHT31;58740;50.672;18.690;2022-12-29T04:48:16;4.05;70.55
71082;SHT31;58740;50.672;18.690;2022-12-29T04:50:46;4.03;70.82
71082;SHT31;58740;50.672;18.690;2022-12-29T04:53:16;4.03;70.82
71082;SHT31;58740;50.672;18.690;2022-12-29T04:55:48;4.04;70.92
71082;SHT31;58740;50.672;18.690;2022-12-29T04:58:19;4.05;70.87
71082;SHT31;58740;50.672;18.690;2022-12-29T05:00:50;4.05;70.89
71082;SHT31;58740;50.672;18.690;2022-12-29T05:03:19;4.05;70.97
71082;SHT31;58740;50.672;18.690;2022-12-29T05:05:47;4.02;70.96
71082;SHT31;58740;50.672;18.690;2022-12-29T05:08:15;4.00;70.98
71082;SHT31;58740;50.672;18.690;2022-12-29T05:10:44;3.98;70.90
71082;SHT31;58740;50.672;18.690;2022-12-29T05:13:13;3.96;71.02
71082;SHT31;58740;50.672;18.690;2022-12-29T05:15:41;3.94;71.01
71082;SHT31;58740;50.672;18.690;2022-12-29T05:18:17;3.90;70.70
71082;SHT31;58740;50.672;18.690;2022-12-29T05:20:46;3.91;70.89
71082;SHT31;58740;50.672;18.690;2022-12-29T05:23:14;3.92;70.95
71082;SHT31;58740;50.672;18.690;2022-12-29T05:25:45;3.94;71.14
71082;SHT31;58740;50.672;18.690;2022-12-29T05:28:13;3.96;71.20
71082;SHT31;58740;50.672;18.690;2022-12-29T05:30:41;3.97;71.02
71082;SHT31;58740;50.672;18.690;2022-12-29T05:33:09;4.00;71.02
71082;SHT31;58740;50.672;18.690;2022-12-29T05:35:39;4.00;71.00
71082;SHT31;58740;50.672;18.690;2022-12-29T05:38:06;4.01;71.11
71082;SHT31;58740;50.672;18.690;2022-12-29T05:40:34;4.00;71.01
71082;SHT31;58740;50.672;18.690;2022-12-29T05:43:02;3.99;70.85
71082;SHT31;58740;50.672;18.690;2022-12-29T05:45:30;3.99;70.86
71082;SHT31;58740;50.672;18.690;2022-12-29T05:47:57;4.00;71.04
71082;SHT31;58740;50.672;18.690;2022-12-29T05:50:25;3.99;70.93
71082;SHT31;58740;50.672;18.690;2022-12-29T05:52:54;4.05;70.71
71082;SHT31;58740;50.672;18.690;2022-12-29T05:55:22;4.09;70.61
71082;SHT31;58740;50.672;18.690;2022-12-29T05:57:49;4.15;70.67
71082;SHT31;58740;50.672;18.690;2022-12-29T06:00:17;4.19;70.62
71082;SHT31;58740;50.672;18.690;2022-12-29T06:02:45;4.23;70.35
71082;SHT31;58740;50.672;18.690;2022-12-29T06:05:14;4.24;70.22
71082;SHT31;58740;50.672;18.690;2022-12-29T06:07:41;4.27;70.23
71082;SHT31;58740;50.672;18.690;2022-12-29T06:10:09;4.30;70.03
71082;SHT31;58740;50.672;18.690;2022-12-29T06:12:37;4.31;70.15
71082;SHT31;58740;50.672;18.690;2022-12-29T06:15:05;4.32;70.17
71082;SHT31;58740;50.672;18.690;2022-12-29T06:17:34;4.32;70.11
71082;SHT31;58740;50.672;18.690;2022-12-29T06:20:02;4.34;70.30
71082;SHT31;58740;50.672;18.690;2022-12-29T06:22:30;4.37;70.24
71082;SHT31;58740;50.672;18.690;2022-12-29T06:24:58;4.40;70.08
71082;SHT31;58740;50.672;18.690;2022-12-29T06:27:31;4.43;70.11
71082;SHT31;58740;50.672;18.690;2022-12-29T06:30:00;4.47;70.17
71082;SHT31;58740;50.672;18.690;2022-12-29T06:32:28;4.49;70.31
71082;SHT31;58740;50.672;18.690;2022-12-29T06:34:56;4.51;70.40
71082;SHT31;58740;50.672;18.690;2022-12-29T06:37:24;4.51;70.47
71082;SHT31;58740;50.672;18.690;2022-12-29T06:39:52;4.52;70.49
71082;SHT31;58740;50.672;18.690;2022-12-29T06:42:19;4.50;70.23
71082;SHT31;58740;50.672;18.690;2022-12-29T06:44:47;4.51;70.17
71082;SHT31;58740;50.672;18.690;2022-12-29T06:47:15;4.51;70.09
71082;SHT31;58740;50.672;18.690;2022-12-29T06:49:44;4.51;69.93
71082;SHT31;58740;50.672;18.690;2022-12-29T06:52:12;4.52;69.99
71082;SHT31;58740;50.672;18.690;2022-12-29T06:54:40;4.55;69.79
71082;SHT31;58740;50.672;18.690;2022-12-29T06:57:08;4.57;69.82
71082;SHT31;58740;50.672;18.690;2022-12-29T06:59:36;4.60;69.96
71082;SHT31;58740;50.672;18.690;2022-12-29T07:02:03;4.59;70.02
71082;SHT31;58740;50.672;18.690;2022-12-29T07:04:31;4.60;69.87
71082;SHT31;58740;50.672;18.690;2022-12-29T07:07:00;4.60;69.96
71082;SHT31;58740;50.672;18.690;2022-12-29T07:09:28;4.58;70.04
71082;SHT31;58740;50.672;18.690;2022-12-29T07:11:55;4.57;70.13
71082;SHT31;58740;50.672;18.690;2022-12-29T07:14:23;4.56;70.00
71082;SHT31;58740;50.672;18.690;2022-12-29T07:16:51;4.57;69.86
71082;SHT31;58740;50.672;18.690;2022-12-29T07:19:19;4.61;70.04
71082;SHT31;58740;50.672;18.690;2022-12-29T07:21:47;4.64;69.92
71082;SHT31;58740;50.672;18.690;2022-12-29T07:24:15;4.67;69.66
71082;SHT31;58740;50.672;18.690;2022-12-29T07:26:43;4.69;69.48
71082;SHT31;58740;50.672;18.690;2022-12-29T07:29:11;4.71;69.68
71082;SHT31;58740;50.672;18.690;2022-12-29T07:31:38;4.70;69.82
71082;SHT31;58740;50.672;18.690;2022-12-29T07:34:07;4.70;69.77
71082;SHT31;58740;50.672;18.690;2022-12-29T07:36:36;4.70;69.79
71082;SHT31;58740;50.672;18.690;2022-12-29T07:39:04;4.70;69.53
71082;SHT31;58740;50.672;18.690;2022-12-29T07:41:32;4.71;69.87
71082;SHT31;58740;50.672;18.690;2022-12-29T07:44:02;4.70;69.92
71082;SHT31;58740;50.672;18.690;2022-12-29T07:46:30;4.71;69.84
71082;SHT31;58740;50.672;18.690;2022-12-29T07:49:18;4.73;69.54
71082;SHT31;58740;50.672;18.690;2022-12-29T07:51:45;4.77;69.54
71082;SHT31;58740;50.672;18.690;2022-12-29T07:54:13;4.80;69.31
71082;SHT31;58740;50.672;18.690;2022-12-29T07:56:41;4.84;69.45
71082;SHT31;58740;50.672;18.690;2022-12-29T07:59:09;4.83;69.34
71082;SHT31;58740;50.672;18.690;2022-12-29T08:01:38;4.83;69.33
71082;SHT31;58740;50.672;18.690;2022-12-29T08:04:06;4.84;69.44
71082;SHT31;58740;50.672;18.690;2022-12-29T08:06:34;4.82;69.62
71082;SHT31;58740;50.672;18.690;2022-12-29T08:09:02;4.82;69.56
71082;SHT31;58740;50.672;18.690;2022-12-29T08:11:44;4.84;69.77
71082;SHT31;58740;50.672;18.690;2022-12-29T08:14:12;4.88;69.64
71082;SHT31;58740;50.672;18.690;2022-12-29T08:16:40;4.93;69.33
71082;SHT31;58740;50.672;18.690;2022-12-29T08:19:09;4.97;69.55
71082;SHT31;58740;50.672;18.690;2022-12-29T08:21:39;5.00;69.62
71082;SHT31;58740;50.672;18.690;2022-12-29T08:24:07;5.04;69.33
71082;SHT31;58740;50.672;18.690;2022-12-29T08:26:36;5.06;69.25
71082;SHT31;58740;50.672;18.690;2022-12-29T08:29:04;5.09;69.08
71082;SHT31;58740;50.672;18.690;2022-12-29T08:31:32;5.13;69.23
71082;SHT31;58740;50.672;18.690;2022-12-29T08:33:59;5.18;69.36
71082;SHT31;58740;50.672;18.690;2022-12-29T08:36:29;5.23;69.38
71082;SHT31;58740;50.672;18.690;2022-12-29T08:38:58;5.28;69.10
71082;SHT31;58740;50.672;18.690;2022-12-29T08:41:26;5.35;68.86
71082;SHT31;58740;50.672;18.690;2022-12-29T08:43:53;5.41;69.05
71082;SHT31;58740;50.672;18.690;2022-12-29T08:46:21;5.45;68.69
71082;SHT31;58740;50.672;18.690;2022-12-29T08:48:49;5.49;68.74
71082;SHT31;58740;50.672;18.690;2022-12-29T08:51:17;5.53;68.26
71082;SHT31;58740;50.672;18.690;2022-12-29T08:53:51;5.58;68.56
71082;SHT31;58740;50.672;18.690;2022-12-29T08:56:19;5.60;68.44
71082;SHT31;58740;50.672;18.690;2022-12-29T08:58:48;5.61;67.84
71082;SHT31;58740;50.672;18.690;2022-12-29T09:01:15;5.64;68.24
71082;SHT31;58740;50.672;18.690;2022-12-29T09:03:44;5.67;68.19
71082;SHT31;58740;50.672;18.690;2022-12-29T09:06:32;5.69;68.05
71082;SHT31;58740;50.672;18.690;2022-12-29T09:09:06;5.71;68.13
71082;SHT31;58740;50.672;18.690;2022-12-29T09:11:35;5.74;67.98
71082;SHT31;58740;50.672;18.690;2022-12-29T09:14:03;5.80;67.74
71082;SHT31;58740;50.672;18.690;2022-12-29T09:16:31;5.85;67.14
71082;SHT31;58740;50.672;18.690;2022-12-29T09:19:00;5.87;67.28
71082;SHT31;58740;50.672;18.690;2022-12-29T09:21:29;5.89;66.99
71082;SHT31;58740;50.672;18.690;2022-12-29T09:23:57;5.90;67.40
71082;SHT31;58740;50.672;18.690;2022-12-29T09:26:25;5.90;67.53
71082;SHT31;58740;50.672;18.690;2022-12-29T09:28:53;5.90;67.94
71082;SHT31;58740;50.672;18.690;2022-12-29T09:31:21;5.89;67.49
71082;SHT31;58740;50.672;18.690;2022-12-29T09:33:49;5.89;67.63
71082;SHT31;58740;50.672;18.690;2022-12-29T09:36:17;5.89;67.62
71082;SHT31;58740;50.672;18.690;2022-12-29T09:38:44;5.90;68.01
71082;SHT31;58740;50.672;18.690;2022-12-29T09:41:18;5.92;68.08
71082;SHT31;58740;50.672;18.690;2022-12-29T09:43:56;5.95;68.04
71082;SHT31;58740;50.672;18.690;2022-12-29T09:46:41;5.97;68.03
71082;SHT31;58740;50.672;18.690;2022-12-29T09:49:22;5.98;67.87
71082;SHT31;58740;50.672;18.690;2022-12-29T09:52:14;6.01;67.93
71082;SHT31;58740;50.672;18.690;2022-12-29T09:57:34;6.04;67.59
71082;SHT31;58740;50.672;18.690;2022-12-29T10:00:23;6.06;67.63
71082;SHT31;58740;50.672;18.690;2022-12-29T10:03:07;6.09;67.60
71082;SHT31;58740;50.672;18.690;2022-12-29T10:12:01;6.17;67.60
71082;SHT31;58740;50.672;18.690;2022-12-29T10:21:09;6.33;67.12
71082;SHT31;58740;50.672;18.690;2022-12-29T10:23:53;6.34;67.05
71082;SHT31;58740;50.672;18.690;2022-12-29T10:26:23;6.39;67.19
71082;SHT31;58740;50.672;18.690;2022-12-29T10:28:58;6.41;67.18
71082;SHT31;58740;50.672;18.690;2022-12-29T10:31:36;6.45;67.36
71082;SHT31;58740;50.672;18.690;2022-12-29T10:34:27;6.46;67.54
71082;SHT31;58740;50.672;18.690;2022-12-29T10:37:45;6.47;67.28
71082;SHT31;58740;50.672;18.690;2022-12-29T10:40:02;6.47;67.25
71082;SHT31;58740;50.672;18.690;2022-12-29T10:42:53;6.47;67.65
71082;SHT31;58740;50.672;18.690;2022-12-29T10:45:26;6.47;67.46
71082;SHT31;58740;50.672;18.690;2022-12-29T10:48:05;6.52;67.42
71082;SHT31;58740;50.672;18.690;2022-12-29T10:50:41;6.54;67.62
71082;SHT31;58740;50.672;18.690;2022-12-29T10:53:12;6.56;67.80
71082;SHT31;58740;50.672;18.690;2022-12-29T10:55:50;6.58;67.75
71082;SHT31;58740;50.672;18.690;2022-12-29T10:58:18;6.59;67.64
71082;SHT31;58740;50.672;18.690;2022-12-29T11:00:49;6.61;67.58
71082;SHT31;58740;50.672;18.690;2022-12-29T11:06:21;6.63;67.29
71082;SHT31;58740;50.672;18.690;2022-12-29T11:08:57;6.64;67.19
71082;SHT31;58740;50.672;18.690;2022-12-29T11:11:43;6.64;67.64
71082;SHT31;58740;50.672;18.690;2022-12-29T11:17:09;6.66;68.10
71082;SHT31;58740;50.672;18.690;2022-12-29T11:19:47;6.70;68.12
71082;SHT31;58740;50.672;18.690;2022-12-29T11:22:25;6.72;68.15
71082;SHT31;58740;50.672;18.690;2022-12-29T11:25:04;6.74;68.13
71082;SHT31;58740;50.672;18.690;2022-12-29T11:27:39;6.76;67.86
71082;SHT31;58740;50.672;18.690;2022-12-29T11:30:41;6.76;67.97
71082;SHT31;58740;50.672;18.690;2022-12-29T11:33:10;6.75;67.87
71082;SHT31;58740;50.672;18.690;2022-12-29T11:35:40;6.75;68.31
71082;SHT31;58740;50.672;18.690;2022-12-29T11:38:22;6.72;68.45
71082;SHT31;58740;50.672;18.690;2022-12-29T11:40:58;6.70;68.58
71082;SHT31;58740;50.672;18.690;2022-12-29T11:43:37;6.69;68.76
71082;SHT31;58740;50.672;18.690;2022-12-29T11:46:31;6.67;68.64
71082;SHT31;58740;50.672;18.690;2022-12-29T11:49:00;6.66;68.55
71082;SHT31;58740;50.672;18.690;2022-12-29T11:51:43;6.66;68.90
71082;SHT31;58740;50.672;18.690;2022-12-29T11:54:18;6.68;69.22
71082;SHT31;58740;50.672;18.690;2022-12-29T11:56:52;6.71;69.91
71082;SHT31;58740;50.672;18.690;2022-12-29T12:01:59;6.69;70.67
71082;SHT31;58740;50.672;18.690;2022-12-29T12:04:38;6.68;70.53
71082;SHT31;58740;50.672;18.690;2022-12-29T12:10:16;6.68;70.63
71082;SHT31;58740;50.672;18.690;2022-12-29T12:15:46;6.66;70.86
71082;SHT31;58740;50.672;18.690;2022-12-29T12:18:27;6.69;70.97
71082;SHT31;58740;50.672;18.690;2022-12-29T12:35:36;6.80;70.40
71082;SHT31;58740;50.672;18.690;2022-12-29T12:44:52;6.81;70.53
71082;SHT31;58740;50.672;18.690;2022-12-29T12:47:54;6.84;70.43
71082;SHT31;58740;50.672;18.690;2022-12-29T12:50:46;6.85;70.37
71082;SHT31;58740;50.672;18.690;2022-12-29T12:56:56;6.85;70.45
71082;SHT31;58740;50.672;18.690;2022-12-29T13:08:24;6.79;70.42
71082;SHT31;58740;50.672;18.690;2022-12-29T13:11:13;6.79;70.15
71082;SHT31;58740;50.672;18.690;2022-12-29T13:14:12;6.80;70.32
71082;SHT31;58740;50.672;18.690;2022-12-29T13:22:32;6.93;70.04
71082;SHT31;58740;50.672;18.690;2022-12-29T13:25:16;6.94;69.94
71082;SHT31;58740;50.672;18.690;2022-12-29T13:30:34;6.96;69.85
71082;SHT31;58740;50.672;18.690;2022-12-29T13:38:57;7.01;69.63
71082;SHT31;58740;50.672;18.690;2022-12-29T13:44:25;7.02;69.70
71082;SHT31;58740;50.672;18.690;2022-12-29T13:50:02;7.06;69.69
71082;SHT31;58740;50.672;18.690;2022-12-29T13:55:26;7.07;69.71
71082;SHT31;58740;50.672;18.690;2022-12-29T14:06:27;7.05;69.88
71082;SHT31;58740;50.672;18.690;2022-12-29T14:09:02;7.06;69.95
71082;SHT31;58740;50.672;18.690;2022-12-29T14:11:34;7.07;70.10
71082;SHT31;58740;50.672;18.690;2022-12-29T14:16:52;7.10;70.37
71082;SHT31;58740;50.672;18.690;2022-12-29T14:19:27;7.09;70.39
71082;SHT31;58740;50.672;18.690;2022-12-29T14:22:08;7.10;70.35
71082;SHT31;58740;50.672;18.690;2022-12-29T14:24:43;7.11;70.41
71082;SHT31;58740;50.672;18.690;2022-12-29T14:29:43;7.09;70.54
71082;SHT31;58740;50.672;18.690;2022-12-29T14:32:36;7.07;70.53
71082;SHT31;58740;50.672;18.690;2022-12-29T14:35:36;7.07;70.67
71082;SHT31;58740;50.672;18.690;2022-12-29T14:38:44;7.04;70.77
71082;SHT31;58740;50.672;18.690;2022-12-29T14:41:17;7.03;70.76
71082;SHT31;58740;50.672;18.690;2022-12-29T14:49:42;7.12;70.82
71082;SHT31;58740;50.672;18.690;2022-12-29T14:52:17;7.14;70.90
71082;SHT31;58740;50.672;18.690;2022-12-29T14:58:04;7.15;70.85
71082;SHT31;58740;50.672;18.690;2022-12-29T15:00:41;7.14;70.98
71082;SHT31;58740;50.672;18.690;2022-12-29T15:06:20;7.10;71.09
71082;SHT31;58740;50.672;18.690;2022-12-29T15:09:40;7.10;71.17
71082;SHT31;58740;50.672;18.690;2022-12-29T15:11:54;7.13;71.12
71082;SHT31;58740;50.672;18.690;2022-12-29T15:14:35;7.16;71.07
71082;SHT31;58740;50.672;18.690;2022-12-29T15:17:11;7.19;71.07
71082;SHT31;58740;50.672;18.690;2022-12-29T15:20:17;7.21;71.15
71082;SHT31;58740;50.672;18.690;2022-12-29T15:23:09;7.22;71.12
71082;SHT31;58740;50.672;18.690;2022-12-29T15:25:50;7.23;71.14
71082;SHT31;58740;50.672;18.690;2022-12-29T15:28:39;7.23;71.27
71082;SHT31;58740;50.672;18.690;2022-12-29T15:31:20;7.23;71.35
71082;SHT31;58740;50.672;18.690;2022-12-29T15:34:10;7.23;71.43
71082;SHT31;58740;50.672;18.690;2022-12-29T15:36:40;7.25;71.58
71082;SHT31;58740;50.672;18.690;2022-12-29T15:39:28;7.27;71.59
71082;SHT31;58740;50.672;18.690;2022-12-29T15:44:54;7.29;71.62
71082;SHT31;58740;50.672;18.690;2022-12-29T15:47:36;7.28;71.58
71082;SHT31;58740;50.672;18.690;2022-12-29T15:52:53;7.26;71.58
71082;SHT31;58740;50.672;18.690;2022-12-29T15:55:36;7.25;71.41
71082;SHT31;58740;50.672;18.690;2022-12-29T15:58:18;7.24;71.43
71082;SHT31;58740;50.672;18.690;2022-12-29T16:00:54;7.22;71.43
71082;SHT31;58740;50.672;18.690;2022-12-29T16:03:26;7.23;71.34
71082;SHT31;58740;50.672;18.690;2022-12-29T16:06:10;7.25;71.23
71082;SHT31;58740;50.672;18.690;2022-12-29T16:09:42;7.29;71.26
71082;SHT31;58740;50.672;18.690;2022-12-29T16:11:57;7.29;71.11
71082;SHT31;58740;50.672;18.690;2022-12-29T16:14:42;7.30;70.65
71082;SHT31;58740;50.672;18.690;2022-12-29T16:17:19;7.32;70.71
71082;SHT31;58740;50.672;18.690;2022-12-29T16:19:55;7.31;70.65
71082;SHT31;58740;50.672;18.690;2022-12-29T16:25:13;7.29;70.37
71082;SHT31;58740;50.672;18.690;2022-12-29T16:27:50;7.28;70.45
71082;SHT31;58740;50.672;18.690;2022-12-29T16:30:20;7.26;70.66
71082;SHT31;58740;50.672;18.690;2022-12-29T16:33:01;7.27;70.51
71082;SHT31;58740;50.672;18.690;2022-12-29T16:35:44;7.29;70.38
71082;SHT31;58740;50.672;18.690;2022-12-29T16:38:18;7.29;70.42
71082;SHT31;58740;50.672;18.690;2022-12-29T16:40:52;7.30;70.27
71082;SHT31;58740;50.672;18.690;2022-12-29T16:43:23;7.30;70.23
71082;SHT31;58740;50.672;18.690;2022-12-29T16:48:21;7.26;70.26
71082;SHT31;58740;50.672;18.690;2022-12-29T16:50:54;7.25;70.16
71082;SHT31;58740;50.672;18.690;2022-12-29T16:53:39;7.25;70.17
71082;SHT31;58740;50.672;18.690;2022-12-29T16:56:15;7.25;69.85
71082;SHT31;58740;50.672;18.690;2022-12-29T16:58:48;7.27;70.23
71082;SHT31;58740;50.672;18.690;2022-12-29T17:01:21;7.28;69.94
71082;SHT31;58740;50.672;18.690;2022-12-29T17:04:08;7.29;69.97
71082;SHT31;58740;50.672;18.690;2022-12-29T17:06:38;7.28;69.98
71082;SHT31;58740;50.672;18.690;2022-12-29T17:09:20;7.28;69.97
71082;SHT31;58740;50.672;18.690;2022-12-29T17:11:52;7.25;69.80
71082;SHT31;58740;50.672;18.690;2022-12-29T17:20:03;7.20;69.76
71082;SHT31;58740;50.672;18.690;2022-12-29T17:22:41;7.21;69.79
71082;SHT31;58740;50.672;18.690;2022-12-29T17:25:14;7.21;69.54
71082;SHT31;58740;50.672;18.690;2022-12-29T17:27:59;7.22;69.34
71082;SHT31;58740;50.672;18.690;2022-12-29T17:30:32;7.21;69.46
71082;SHT31;58740;50.672;18.690;2022-12-29T17:33:06;7.20;69.41
71082;SHT31;58740;50.672;18.690;2022-12-29T17:35:39;7.18;69.62
71082;SHT31;58740;50.672;18.690;2022-12-29T17:40:54;7.13;69.64
71082;SHT31;58740;50.672;18.690;2022-12-29T17:43:23;7.11;69.55
71082;SHT31;58740;50.672;18.690;2022-12-29T17:45:55;7.10;69.47
71082;SHT31;58740;50.672;18.690;2022-12-29T17:48:25;7.10;69.37
71082;SHT31;58740;50.672;18.690;2022-12-29T17:50:53;7.10;69.36
71082;SHT31;58740;50.672;18.690;2022-12-29T17:53:25;7.12;69.30
71082;SHT31;58740;50.672;18.690;2022-12-29T17:55:56;7.11;69.46
71082;SHT31;58740;50.672;18.690;2022-12-29T17:58:25;7.09;69.16
71082;SHT31;58740;50.672;18.690;2022-12-29T18:01:00;7.07;69.44
71082;SHT31;58740;50.672;18.690;2022-12-29T18:03:32;7.04;69.54
71082;SHT31;58740;50.672;18.690;2022-12-29T18:06:03;7.01;69.76
71082;SHT31;58740;50.672;18.690;2022-12-29T18:08:35;6.98;69.66
71082;SHT31;58740;50.672;18.690;2022-12-29T18:11:08;6.98;69.74
71082;SHT31;58740;50.672;18.690;2022-12-29T18:13:49;6.96;69.76
71082;SHT31;58740;50.672;18.690;2022-12-29T18:16:20;6.93;69.92
71082;SHT31;58740;50.672;18.690;2022-12-29T18:18:50;6.90;69.81
71082;SHT31;58740;50.672;18.690;2022-12-29T18:21:21;6.88;69.97
71082;SHT31;58740;50.672;18.690;2022-12-29T18:23:51;6.86;70.00
71082;SHT31;58740;50.672;18.690;2022-12-29T18:26:20;6.82;70.03
71082;SHT31;58740;50.672;18.690;2022-12-29T18:28:55;6.78;70.16
71082;SHT31;58740;50.672;18.690;2022-12-29T18:31:34;6.75;69.98
71082;SHT31;58740;50.672;18.690;2022-12-29T18:34:06;6.73;70.06
71082;SHT31;58740;50.672;18.690;2022-12-29T18:36:41;6.73;70.34
71082;SHT31;58740;50.672;18.690;2022-12-29T18:39:09;6.71;70.26
71082;SHT31;58740;50.672;18.690;2022-12-29T18:41:38;6.70;70.25
71082;SHT31;58740;50.672;18.690;2022-12-29T18:44:09;6.69;70.22
71082;SHT31;58740;50.672;18.690;2022-12-29T18:46:39;6.68;70.50
71082;SHT31;58740;50.672;18.690;2022-12-29T18:49:07;6.66;70.60
71082;SHT31;58740;50.672;18.690;2022-12-29T18:51:35;6.61;70.65
71082;SHT31;58740;50.672;18.690;2022-12-29T18:54:04;6.57;70.79